< < Back
Terminal Aerodrome Forecast


Current Version              Previous Versions:   1  2  3  4  5  6  7  8  9  

Terminal Aerodrome Forecast

662
FTUS42 KGSP 022050 AAA
TAFAVL
TAF AMD
KAVL 022050Z 0221/0318 VRB04KT P6SM VCSH BKN060
      TEMPO 0221/0222 VRB15KT 4SM SHRA BKN035 OVC060
     FM030500 00000KT P6SM SCT050
     FM031400 33005KT P6SM SCT050=



Latest METAR

384
SAUS70 KWBC 030300 RRH
MTRAVL
METAR KAVL 030254Z 00000KT 10SM BKN095 23/20 A3011 RMK AO2 SLP167
T02280200 51010


USA.gov is the U.S. government's official web portal to all federal, state and local government web resources and services.